Time;durP1;ratioP1;P1;durP2;ratioP2;P2;SDS_P1;SDS_P2;PMS_P1;PMS_P2;Temp;Humidity;BMP_temperature;BMP_pressure;BME280_temperature;BME280_humidity;BME280_pressure;Samples;Min_cycle;Max_cycle;Signal;HPM_P1;HPM_P2
2023/06/03 00:00:27;;;;;;;5.87;3.60;;;;;;;;;;5048937;28;20204;-79
2023/06/03 00:02:53;;;;;;;5.37;3.63;;;;;;;;;;5049799;28;20236;-79
2023/06/03 00:05:21;;;;;;;4.73;3.50;;;;;;;;;;5049294;28;20292;-79
2023/06/03 00:07:49;;;;;;;7.70;4.13;;;;;;;;;;5049297;28;20212;-79
2023/06/03 00:10:16;;;;;;;5.47;4.50;;;;;;;;;;5049331;28;20204;-79
2023/06/03 00:12:44;;;;;;;4.90;3.60;;;;;;;;;;5044801;28;20674;-79
2023/06/03 00:15:12;;;;;;;4.63;3.90;;;;;;;;;;5049341;28;20261;-79
2023/06/03 00:17:39;;;;;;;5.70;3.57;;;;;;;;;;5048983;28;20259;-79
2023/06/03 00:20:09;;;;;;;5.77;4.10;;;;;;;;;;5049371;28;20264;-79
2023/06/03 00:22:37;;;;;;;7.87;3.80;;;;;;;;;;5049152;28;20263;-79
2023/06/03 00:25:07;;;;;;;6.80;3.80;;;;;;;;;;5049403;28;20218;-79
2023/06/03 00:27:33;;;;;;;3.43;3.13;;;;;;;;;;5048615;28;20713;-79
2023/06/03 00:30:01;;;;;;;3.50;3.20;;;;;;;;;;5049308;28;20774;-79
2023/06/03 00:32:28;;;;;;;4.57;4.17;;;;;;;;;;5048831;28;20285;-79
2023/06/03 00:34:54;;;;;;;4.07;3.50;;;;;;;;;;5048859;28;20209;-79
2023/06/03 00:37:21;;;;;;;5.00;3.37;;;;;;;;;;5048543;28;20596;-79
2023/06/03 00:39:49;;;;;;;4.37;3.70;;;;;;;;;;5048808;28;20257;-79
2023/06/03 00:42:17;;;;;;;5.40;3.60;;;;;;;;;;5048264;28;20223;-79
2023/06/03 00:44:44;;;;;;;4.30;3.70;;;;;;;;;;5048833;28;20209;-79
2023/06/03 00:47:11;;;;;;;4.50;3.80;;;;;;;;;;5048763;28;20201;-79
2023/06/03 00:49:37;;;;;;;3.87;3.57;;;;;;;;;;5048896;28;20229;-79
2023/06/03 00:52:05;;;;;;;4.50;4.00;;;;;;;;;;5047380;28;20209;-79
2023/06/03 00:54:32;;;;;;;4.07;3.70;;;;;;;;;;5048816;28;20200;-79
2023/06/03 00:56:59;;;;;;;4.57;3.83;;;;;;;;;;5048203;28;20202;-79
2023/06/03 00:59:27;;;;;;;5.23;4.23;;;;;;;;;;5049093;28;20209;-80
2023/06/03 01:01:54;;;;;;;11.70;3.90;;;;;;;;;;5048447;28;20224;-80
2023/06/03 01:04:25;;;;;;;3.87;3.30;;;;;;;;;;5048130;28;20203;-80
2023/06/03 01:07:02;;;;;;;6.77;4.20;;;;;;;;;;5048129;28;20206;-80
2023/06/03 01:09:35;;;;;;;3.77;3.47;;;;;;;;;;5048547;28;20202;-80
2023/06/03 01:12:10;;;;;;;5.23;3.70;;;;;;;;;;5048061;28;20251;-80
2023/06/03 01:14:44;;;;;;;4.93;3.87;;;;;;;;;;5048164;28;20209;-80
2023/06/03 01:17:13;;;;;;;5.03;4.17;;;;;;;;;;5048817;28;20658;-80
2023/06/03 01:19:47;;;;;;;5.47;4.20;;;;;;;;;;5048629;28;20383;-80
2023/06/03 01:22:15;;;;;;;4.23;3.90;;;;;;;;;;5047895;28;20235;-80
2023/06/03 01:24:43;;;;;;;4.53;3.17;;;;;;;;;;5048010;28;20202;-80
2023/06/03 01:27:10;;;;;;;5.47;3.53;;;;;;;;;;5047998;28;20637;-80
2023/06/03 01:29:37;;;;;;;4.37;3.97;;;;;;;;;;5048136;28;20204;-80
2023/06/03 01:32:04;;;;;;;4.07;3.67;;;;;;;;;;5047694;28;20211;-80
2023/06/03 01:34:31;;;;;;;4.10;3.70;;;;;;;;;;5022638;28;20202;-80
2023/06/03 01:36:59;;;;;;;5.00;3.80;;;;;;;;;;5047863;28;20202;-80
2023/06/03 01:39:26;;;;;;;5.73;4.00;;;;;;;;;;5048123;28;20195;-80
2023/06/03 01:41:54;;;;;;;5.33;4.43;;;;;;;;;;5047283;28;20236;-80
2023/06/03 01:44:21;;;;;;;3.90;3.60;;;;;;;;;;5047992;28;20263;-80
2023/06/03 01:46:47;;;;;;;6.90;4.17;;;;;;;;;;5046720;28;20255;-80
2023/06/03 01:49:15;;;;;;;3.77;3.47;;;;;;;;;;5048175;28;20230;-80
2023/06/03 01:51:43;;;;;;;5.57;3.90;;;;;;;;;;5048023;28;20214;-80
2023/06/03 01:54:09;;;;;;;5.53;3.57;;;;;;;;;;5047885;28;20267;-80
2023/06/03 01:56:36;;;;;;;4.40;3.67;;;;;;;;;;5047561;28;20209;-80
2023/06/03 01:59:04;;;;;;;5.03;4.33;;;;;;;;;;5047812;28;20202;-80
2023/06/03 02:01:31;;;;;;;7.47;4.03;;;;;;;;;;5046898;28;20242;-80
2023/06/03 02:03:58;;;;;;;8.00;4.03;;;;;;;;;;5047985;28;20289;-80
2023/06/03 02:06:25;;;;;;;4.27;3.87;;;;;;;;;;5047435;28;20198;-80
2023/06/03 02:08:52;;;;;;;6.77;4.33;;;;;;;;;;5047804;28;20227;-80
2023/06/03 02:11:19;;;;;;;4.17;3.77;;;;;;;;;;5047001;28;20198;-80
2023/06/03 02:13:45;;;;;;;4.43;3.47;;;;;;;;;;5047772;28;20203;-80
2023/06/03 02:16:13;;;;;;;4.53;3.73;;;;;;;;;;5047645;28;20202;-80
2023/06/03 02:18:40;;;;;;;5.83;4.30;;;;;;;;;;5047680;28;20224;-80
2023/06/03 02:21:07;;;;;;;5.20;3.77;;;;;;;;;;5047672;28;20979;-80
2023/06/03 02:23:35;;;;;;;4.13;3.73;;;;;;;;;;5038140;28;20612;-80
2023/06/03 02:26:02;;;;;;;8.23;4.10;;;;;;;;;;5044759;28;20199;-80
2023/06/03 02:28:29;;;;;;;5.30;4.10;;;;;;;;;;5047036;28;20213;-80
2023/06/03 02:30:56;;;;;;;5.13;4.47;;;;;;;;;;5047233;28;20292;-80
2023/06/03 02:33:24;;;;;;;3.87;3.53;;;;;;;;;;5046959;28;20290;-80
2023/06/03 02:35:53;;;;;;;7.20;4.47;;;;;;;;;;5047166;28;20201;-80
2023/06/03 02:38:21;;;;;;;5.03;4.07;;;;;;;;;;5047406;28;20210;-80
2023/06/03 02:40:47;;;;;;;4.57;4.17;;;;;;;;;;5046327;28;20767;-80
2023/06/03 02:43:14;;;;;;;5.80;4.13;;;;;;;;;;5047277;28;20229;-80
2023/06/03 02:45:41;;;;;;;4.63;4.23;;;;;;;;;;5047121;28;20241;-80
2023/06/03 02:48:08;;;;;;;6.73;4.47;;;;;;;;;;5040138;28;20317;-80
2023/06/03 02:50:36;;;;;;;7.53;5.67;;;;;;;;;;5026975;28;20200;-80
2023/06/03 02:53:03;;;;;;;5.70;4.10;;;;;;;;;;5044637;28;20568;-80
2023/06/03 02:55:33;;;;;;;4.53;4.13;;;;;;;;;;5047071;28;20260;-80
2023/06/03 02:58:00;;;;;;;6.87;4.13;;;;;;;;;;5030288;28;20564;-80
2023/06/03 03:00:26;;;;;;;5.63;4.90;;;;;;;;;;5043405;28;20206;-80
2023/06/03 03:02:53;;;;;;;4.70;4.30;;;;;;;;;;5050359;28;20226;-80
2023/06/03 03:05:20;;;;;;;4.40;4.00;;;;;;;;;;5050196;28;20206;-80
2023/06/03 03:07:48;;;;;;;9.57;5.37;;;;;;;;;;5049984;28;20202;-80
2023/06/03 03:10:15;;;;;;;5.23;4.60;;;;;;;;;;5050380;28;20198;-80
2023/06/03 03:12:42;;;;;;;5.20;4.07;;;;;;;;;;5050221;28;20641;-80
2023/06/03 03:15:10;;;;;;;7.57;4.63;;;;;;;;;;5044507;28;20222;-80
2023/06/03 03:17:36;;;;;;;5.43;4.93;;;;;;;;;;5043596;28;20198;-80
2023/06/03 03:20:04;;;;;;;5.73;5.13;;;;;;;;;;5050264;28;20369;-80
2023/06/03 03:22:32;;;;;;;7.47;4.73;;;;;;;;;;5049998;28;20232;-80
2023/06/03 03:25:00;;;;;;;5.23;4.67;;;;;;;;;;5038948;28;20566;-80
2023/06/03 03:27:27;;;;;;;6.73;4.87;;;;;;;;;;5036459;28;20206;-80
2023/06/03 03:29:55;;;;;;;5.00;4.13;;;;;;;;;;5050558;28;20266;-80
2023/06/03 03:32:22;;;;;;;5.20;4.53;;;;;;;;;;5049564;28;20213;-80
2023/06/03 03:34:59;;;;;;;5.40;4.87;;;;;;;;;;5049475;28;20248;-80
2023/06/03 03:37:26;;;;;;;7.60;4.57;;;;;;;;;;5048661;28;20210;-80
2023/06/03 03:39:52;;;;;;;5.27;4.63;;;;;;;;;;5048897;28;20219;-80
2023/06/03 03:42:21;;;;;;;5.17;4.67;;;;;;;;;;5048140;28;20225;-80
2023/06/03 03:44:47;;;;;;;5.00;4.43;;;;;;;;;;5048928;28;20203;-80
2023/06/03 03:47:19;;;;;;;6.50;4.40;;;;;;;;;;5034959;28;20284;-80
2023/06/03 03:49:46;;;;;;;7.40;4.37;;;;;;;;;;5048613;28;20232;-81
2023/06/03 03:52:14;;;;;;;4.70;3.73;;;;;;;;;;5048625;28;20214;-80
2023/06/03 03:54:41;;;;;;;5.43;3.97;;;;;;;;;;5049371;28;20681;-80
2023/06/03 03:57:10;;;;;;;6.20;4.13;;;;;;;;;;5045818;28;20683;-80
2023/06/03 03:59:38;;;;;;;4.23;3.57;;;;;;;;;;5040959;28;20630;-80
2023/06/03 04:02:05;;;;;;;7.80;3.90;;;;;;;;;;5049527;28;20201;-80
2023/06/03 04:04:40;;;;;;;4.40;4.00;;;;;;;;;;5049445;28;20204;-80
2023/06/03 04:07:10;;;;;;;6.77;4.40;;;;;;;;;;5049479;28;20211;-80
2023/06/03 04:09:38;;;;;;;4.40;4.00;;;;;;;;;;5041516;28;20206;-79
2023/06/03 04:12:08;;;;;;;5.77;5.00;;;;;;;;;;5039999;28;20581;-79
2023/06/03 04:14:45;;;;;;;4.40;4.00;;;;;;;;;;5049102;28;20287;-79
2023/06/03 04:17:14;;;;;;;9.47;4.80;;;;;;;;;;5049105;28;20211;-79
2023/06/03 04:19:41;;;;;;;5.77;4.27;;;;;;;;;;5048855;28;20326;-79
2023/06/03 04:22:09;;;;;;;4.90;4.40;;;;;;;;;;5048847;28;20207;-78
2023/06/03 04:24:36;;;;;;;4.83;4.33;;;;;;;;;;5048582;28;20638;-78
2023/06/03 04:27:04;;;;;;;4.33;3.93;;;;;;;;;;5049076;28;20235;-78
2023/06/03 04:29:31;;;;;;;4.67;4.00;;;;;;;;;;5048699;28;20587;-79
2023/06/03 04:31:59;;;;;;;4.87;4.37;;;;;;;;;;5041734;28;20202;-78
2023/06/03 04:34:28;;;;;;;4.40;4.00;;;;;;;;;;5047276;28;20204;-79
2023/06/03 04:36:54;;;;;;;5.90;4.10;;;;;;;;;;5048767;28;20208;-79
2023/06/03 04:39:21;;;;;;;5.00;4.50;;;;;;;;;;5048554;28;20260;-79
2023/06/03 04:41:49;;;;;;;7.17;4.50;;;;;;;;;;5048330;28;20214;-80
2023/06/03 04:44:16;;;;;;;7.10;4.73;;;;;;;;;;5048272;28;20227;-78
2023/06/03 04:46:45;;;;;;;14.30;6.77;;;;;;;;;;5034155;28;20258;-79
2023/06/03 04:49:14;;;;;;;4.57;4.17;;;;;;;;;;5048517;28;20260;-79
2023/06/03 04:51:42;;;;;;;4.73;4.00;;;;;;;;;;5047010;27;20746;-78
2023/06/03 04:54:09;;;;;;;9.63;6.03;;;;;;;;;;5037025;28;20710;-78
2023/06/03 04:56:36;;;;;;;6.73;5.60;;;;;;;;;;5048550;28;20228;-79
2023/06/03 04:59:03;;;;;;;11.23;6.33;;;;;;;;;;5048277;28;20206;-78
2023/06/03 05:01:31;;;;;;;24.07;12.67;;;;;;;;;;5048350;28;20202;-79
2023/06/03 05:03:58;;;;;;;42.43;18.93;;;;;;;;;;5048724;28;20239;-79
2023/06/03 05:06:28;;;;;;;7.93;6.37;;;;;;;;;;5048822;28;20216;-79
2023/06/03 05:08:56;;;;;;;18.27;10.63;;;;;;;;;;5047719;28;20210;-79
2023/06/03 05:11:23;;;;;;;5.73;5.23;;;;;;;;;;5011441;28;20280;-79
2023/06/03 05:13:52;;;;;;;6.93;5.80;;;;;;;;;;5048262;28;20217;-79
2023/06/03 05:16:21;;;;;;;5.27;4.63;;;;;;;;;;5043943;27;20209;-79
2023/06/03 05:18:48;;;;;;;5.53;4.50;;;;;;;;;;5028035;28;20624;-79
2023/06/03 05:21:17;;;;;;;8.10;5.07;;;;;;;;;;5028292;28;20207;-79
2023/06/03 05:23:45;;;;;;;5.73;4.83;;;;;;;;;;5013426;28;20647;-78
2023/06/03 05:26:12;;;;;;;5.63;4.87;;;;;;;;;;5038873;28;20212;-78
2023/06/03 05:28:39;;;;;;;5.73;5.23;;;;;;;;;;5047685;28;20288;-78
2023/06/03 05:31:06;;;;;;;5.00;4.60;;;;;;;;;;5046365;28;20201;-78
2023/06/03 05:33:35;;;;;;;5.40;4.90;;;;;;;;;;5047717;27;20382;-78
2023/06/03 05:36:02;;;;;;;4.93;4.53;;;;;;;;;;5047360;28;20231;-78
2023/06/03 05:38:30;;;;;;;6.73;3.90;;;;;;;;;;5046157;27;20205;-77
2023/06/03 05:40:59;;;;;;;5.60;4.60;;;;;;;;;;5047083;28;20634;-77
2023/06/03 05:43:26;;;;;;;5.03;4.53;;;;;;;;;;5047389;28;20320;-77
2023/06/03 05:45:53;;;;;;;5.27;4.17;;;;;;;;;;5022178;27;20211;-77
2023/06/03 05:48:20;;;;;;;4.60;3.77;;;;;;;;;;5019305;28;20229;-77
2023/06/03 05:50:50;;;;;;;4.20;3.80;;;;;;;;;;5041656;28;20209;-78
2023/06/03 05:53:19;;;;;;;4.30;3.90;;;;;;;;;;5047222;28;20217;-78
2023/06/03 05:55:46;;;;;;;6.17;3.77;;;;;;;;;;5046379;28;20209;-78
2023/06/03 05:58:14;;;;;;;5.03;4.53;;;;;;;;;;5038155;28;20241;-77
2023/06/03 06:00:41;;;;;;;5.00;4.17;;;;;;;;;;5041981;28;20209;-78
2023/06/03 06:03:08;;;;;;;4.17;3.73;;;;;;;;;;5037301;28;20283;-78
2023/06/03 06:05:35;;;;;;;3.90;3.00;;;;;;;;;;5041590;28;20202;-78
2023/06/03 06:08:02;;;;;;;4.73;3.77;;;;;;;;;;5046203;28;20206;-78
2023/06/03 06:10:29;;;;;;;4.13;3.73;;;;;;;;;;5046563;28;20202;-78
2023/06/03 06:12:56;;;;;;;5.57;3.27;;;;;;;;;;5037080;28;20211;-78
2023/06/03 06:15:25;;;;;;;5.30;3.50;;;;;;;;;;5043109;28;20625;-78
2023/06/03 06:17:52;;;;;;;3.60;3.30;;;;;;;;;;5045843;27;20566;-78
2023/06/03 06:20:19;;;;;;;7.53;3.80;;;;;;;;;;5016905;28;20689;-78
2023/06/03 06:22:48;;;;;;;4.20;3.70;;;;;;;;;;5039043;28;20204;-78
2023/06/03 06:25:15;;;;;;;6.73;3.90;;;;;;;;;;5047220;28;20703;-78
2023/06/03 06:27:42;;;;;;;5.83;3.77;;;;;;;;;;5046921;28;20209;-78
2023/06/03 06:30:10;;;;;;;6.13;3.90;;;;;;;;;;5047103;28;20679;-78
2023/06/03 06:32:45;;;;;;;4.00;3.57;;;;;;;;;;5048429;28;20247;-78
2023/06/03 06:35:12;;;;;;;6.63;4.17;;;;;;;;;;5051173;28;20216;-78
2023/06/03 06:37:39;;;;;;;4.30;3.90;;;;;;;;;;5050661;28;20206;-78
2023/06/03 06:40:09;;;;;;;4.00;3.57;;;;;;;;;;5050744;28;20679;-78
2023/06/03 06:42:38;;;;;;;3.73;3.43;;;;;;;;;;5050727;28;20210;-78
2023/06/03 06:45:10;;;;;;;4.30;3.63;;;;;;;;;;5024764;28;20242;-78
2023/06/03 06:47:39;;;;;;;4.83;3.50;;;;;;;;;;5025902;28;20206;-78
2023/06/03 06:50:09;;;;;;;4.07;3.57;;;;;;;;;;5050259;28;20706;-78
2023/06/03 06:52:36;;;;;;;8.70;4.77;;;;;;;;;;5050237;28;20615;-77
2023/06/03 06:55:03;;;;;;;4.23;3.83;;;;;;;;;;5050072;28;20672;-78
2023/06/03 06:57:30;;;;;;;6.37;3.60;;;;;;;;;;5049911;28;20700;-78
2023/06/03 06:59:56;;;;;;;3.43;3.13;;;;;;;;;;5049274;28;20214;-78
2023/06/03 07:02:25;;;;;;;3.27;3.07;;;;;;;;;;5050428;28;20250;-78
2023/06/03 07:04:53;;;;;;;6.70;4.00;;;;;;;;;;5049942;28;20230;-78
2023/06/03 07:07:20;;;;;;;5.37;4.03;;;;;;;;;;5050143;28;20205;-78
2023/06/03 07:09:47;;;;;;;4.43;3.93;;;;;;;;;;5049756;28;20238;-78
2023/06/03 07:12:13;;;;;;;5.50;4.00;;;;;;;;;;5050733;28;20198;-78
2023/06/03 07:14:40;;;;;;;4.87;4.07;;;;;;;;;;5050349;28;20569;-78
2023/06/03 07:17:07;;;;;;;3.87;3.57;;;;;;;;;;5049837;28;20202;-78
2023/06/03 07:19:37;;;;;;;5.67;3.90;;;;;;;;;;5049660;27;20673;-78
2023/06/03 07:22:06;;;;;;;3.57;3.27;;;;;;;;;;5050479;28;20293;-78
2023/06/03 07:24:34;;;;;;;3.87;3.50;;;;;;;;;;5050001;28;20240;-78
2023/06/03 07:27:01;;;;;;;4.77;3.47;;;;;;;;;;5050229;28;20297;-78
2023/06/03 07:29:29;;;;;;;5.10;3.80;;;;;;;;;;5050214;28;20209;-78
2023/06/03 07:31:56;;;;;;;5.13;3.80;;;;;;;;;;5050101;28;20228;-78
2023/06/03 07:34:24;;;;;;;3.90;3.27;;;;;;;;;;5049853;28;20557;-78
2023/06/03 07:36:58;;;;;;;3.90;3.50;;;;;;;;;;5050333;28;20198;-78
2023/06/03 07:39:26;;;;;;;3.67;3.37;;;;;;;;;;5024724;28;20213;-78
2023/06/03 07:41:54;;;;;;;4.63;4.23;;;;;;;;;;5049569;28;20213;-78
2023/06/03 07:44:38;;;;;;;3.90;3.60;;;;;;;;;;5048952;28;20641;-78
2023/06/03 07:47:05;;;;;;;4.20;3.90;;;;;;;;;;5049429;28;20642;-78
2023/06/03 07:49:33;;;;;;;3.87;3.57;;;;;;;;;;5049423;28;20252;-78
2023/06/03 07:52:00;;;;;;;3.57;3.27;;;;;;;;;;5049940;28;20210;-78
2023/06/03 07:54:29;;;;;;;4.23;3.83;;;;;;;;;;5050260;28;20202;-78
2023/06/03 07:56:57;;;;;;;6.73;4.30;;;;;;;;;;5049061;28;20241;-78
2023/06/03 07:59:24;;;;;;;5.40;3.70;;;;;;;;;;5049750;28;20700;-78
2023/06/03 08:01:51;;;;;;;4.03;3.73;;;;;;;;;;5048956;28;20214;-79
2023/06/03 08:04:30;;;;;;;4.23;3.83;;;;;;;;;;5049773;28;20230;-78
2023/06/03 08:06:59;;;;;;;4.00;3.70;;;;;;;;;;5024164;28;20691;-78
2023/06/03 08:09:29;;;;;;;5.47;3.60;;;;;;;;;;5048964;28;20707;-78
2023/06/03 08:12:00;;;;;;;5.10;3.57;;;;;;;;;;5049524;28;20221;-78
2023/06/03 08:14:28;;;;;;;6.83;4.10;;;;;;;;;;5049154;28;20210;-78
2023/06/03 08:16:56;;;;;;;4.13;3.43;;;;;;;;;;5049554;28;20206;-79
2023/06/03 08:19:24;;;;;;;5.17;4.67;;;;;;;;;;5049403;28;20632;-78
2023/06/03 08:21:53;;;;;;;4.53;4.13;;;;;;;;;;5048862;28;20279;-79
2023/06/03 08:24:19;;;;;;;4.00;3.60;;;;;;;;;;5049061;28;20238;-78
2023/06/03 08:26:48;;;;;;;4.87;4.20;;;;;;;;;;5048727;28;20209;-78
2023/06/03 08:29:15;;;;;;;5.00;4.60;;;;;;;;;;5033978;28;20215;-78
2023/06/03 08:31:41;;;;;;;4.20;3.77;;;;;;;;;;5048967;28;20212;-78
2023/06/03 08:34:08;;;;;;;5.00;4.50;;;;;;;;;;5048633;28;20251;-79
2023/06/03 08:36:36;;;;;;;4.30;4.00;;;;;;;;;;5047394;28;20206;-79
2023/06/03 08:39:03;;;;;;;5.03;4.43;;;;;;;;;;5049046;28;20194;-78
2023/06/03 08:41:36;;;;;;;5.17;4.47;;;;;;;;;;5048212;28;20205;-78
2023/06/03 08:44:10;;;;;;;4.50;3.77;;;;;;;;;;5049237;28;20222;-79
2023/06/03 08:46:43;;;;;;;5.97;3.87;;;;;;;;;;5048693;28;20213;-78
2023/06/03 08:49:13;;;;;;;5.03;4.03;;;;;;;;;;5022561;28;20742;-79
2023/06/03 08:51:42;;;;;;;5.83;3.70;;;;;;;;;;5048160;28;20202;-78
2023/06/03 08:54:13;;;;;;;4.37;4.00;;;;;;;;;;5048989;28;20198;-79
2023/06/03 08:56:43;;;;;;;4.20;3.83;;;;;;;;;;5047308;28;20202;-79
2023/06/03 08:59:13;;;;;;;3.83;3.53;;;;;;;;;;5048617;28;20198;-78
2023/06/03 09:01:41;;;;;;;3.73;3.40;;;;;;;;;;5028276;28;20205;-78
2023/06/03 09:04:07;;;;;;;4.47;3.93;;;;;;;;;;5023940;28;20275;-79
2023/06/03 09:06:35;;;;;;;4.50;4.03;;;;;;;;;;5023927;28;20206;-79
2023/06/03 09:09:02;;;;;;;5.40;3.70;;;;;;;;;;5026008;28;20218;-79
2023/06/03 09:11:29;;;;;;;4.50;4.00;;;;;;;;;;5031668;28;21141;-81
2023/06/03 09:13:55;;;;;;;4.87;3.83;;;;;;;;;;5023591;28;20207;-80
2023/06/03 09:16:26;;;;;;;4.83;4.13;;;;;;;;;;5030440;28;20198;-80
2023/06/03 09:18:53;;;;;;;5.07;4.17;;;;;;;;;;5033220;28;20211;-80
2023/06/03 09:21:20;;;;;;;5.37;4.53;;;;;;;;;;5027766;28;20232;-78
2023/06/03 09:23:47;;;;;;;7.33;4.30;;;;;;;;;;5021798;28;20284;-78
2023/06/03 09:26:14;;;;;;;4.50;3.90;;;;;;;;;;5019880;28;20261;-78
2023/06/03 09:28:41;;;;;;;14.83;6.73;;;;;;;;;;5020015;28;20264;-78
2023/06/03 09:31:07;;;;;;;4.57;3.80;;;;;;;;;;5022775;28;20207;-78
2023/06/03 09:33:36;;;;;;;5.40;4.13;;;;;;;;;;5031029;28;20203;-79
2023/06/03 09:36:07;;;;;;;4.20;3.80;;;;;;;;;;5017415;28;20215;-79
2023/06/03 09:38:46;;;;;;;8.33;3.70;;;;;;;;;;5021207;28;20650;-79
2023/06/03 09:41:15;;;;;;;5.43;3.87;;;;;;;;;;5022796;28;20282;-79
2023/06/03 09:43:52;;;;;;;4.63;4.00;;;;;;;;;;5022502;28;20250;-78
2023/06/03 09:46:19;;;;;;;5.70;4.73;;;;;;;;;;5016270;28;20642;-79
2023/06/03 09:48:47;;;;;;;5.97;4.23;;;;;;;;;;5023885;28;20222;-79
2023/06/03 09:51:14;;;;;;;5.47;4.83;;;;;;;;;;5026012;28;20207;-78
2023/06/03 09:53:41;;;;;;;7.53;6.20;;;;;;;;;;5029658;28;20206;-79
2023/06/03 09:56:21;;;;;;;5.33;4.83;;;;;;;;;;5047807;28;20298;-79
2023/06/03 09:58:48;;;;;;;4.87;3.80;;;;;;;;;;5046934;28;20198;-78
2023/06/03 10:01:18;;;;;;;4.20;3.87;;;;;;;;;;5023501;28;20728;-80
2023/06/03 10:04:01;;;;;;;5.00;4.50;;;;;;;;;;5014774;28;20227;-80
2023/06/03 10:06:28;;;;;;;5.10;4.60;;;;;;;;;;5048232;28;20206;-80
2023/06/03 10:08:55;;;;;;;6.37;3.97;;;;;;;;;;5054253;28;20229;-80
2023/06/03 10:11:23;;;;;;;4.23;3.87;;;;;;;;;;5040033;28;20195;-80
2023/06/03 10:14:02;;;;;;;4.93;4.43;;;;;;;;;;5032872;28;20202;-81
2023/06/03 10:16:29;;;;;;;4.93;4.53;;;;;;;;;;5048848;28;20213;-80
2023/06/03 10:18:56;;;;;;;4.83;4.03;;;;;;;;;;5036480;28;20205;-80
2023/06/03 10:21:26;;;;;;;4.37;3.97;;;;;;;;;;5054579;28;20270;-81
2023/06/03 10:23:54;;;;;;;4.17;3.73;;;;;;;;;;5053222;28;20668;-80
2023/06/03 10:26:21;;;;;;;4.50;4.10;;;;;;;;;;5046277;28;20194;-80
2023/06/03 10:28:49;;;;;;;5.50;3.83;;;;;;;;;;5040122;28;20206;-80
2023/06/03 10:31:16;;;;;;;5.17;4.20;;;;;;;;;;5027912;28;20650;-80
2023/06/03 10:33:43;;;;;;;3.80;3.50;;;;;;;;;;5049819;28;20200;-80
2023/06/03 10:36:13;;;;;;;4.40;4.00;;;;;;;;;;5053752;28;20744;-80
2023/06/03 10:38:41;;;;;;;4.73;4.17;;;;;;;;;;5054167;28;20198;-80
2023/06/03 10:41:09;;;;;;;4.63;4.03;;;;;;;;;;5051326;28;20201;-81
2023/06/03 10:43:41;;;;;;;4.33;3.97;;;;;;;;;;5031611;28;20625;-80
2023/06/03 10:46:08;;;;;;;4.27;3.63;;;;;;;;;;5042233;28;20246;-81
2023/06/03 10:48:37;;;;;;;4.73;3.90;;;;;;;;;;5050544;28;20230;-81
2023/06/03 10:51:11;;;;;;;4.17;3.77;;;;;;;;;;5053712;28;20202;-80
2023/06/03 10:53:49;;;;;;;5.07;3.70;;;;;;;;;;5053630;28;20202;-80
2023/06/03 10:56:23;;;;;;;4.30;3.90;;;;;;;;;;5052548;28;20699;-81
2023/06/03 10:59:01;;;;;;;6.37;4.20;;;;;;;;;;5053793;28;20280;-80
2023/06/03 11:02:00;;;;;;;4.90;4.00;;;;;;;;;;5052915;28;20287;-81
2023/06/03 11:04:28;;;;;;;4.00;3.70;;;;;;;;;;5052916;28;20225;-81
2023/06/03 11:06:55;;;;;;;6.23;5.13;;;;;;;;;;5053484;28;20214;-80
2023/06/03 11:09:33;;;;;;;6.47;3.77;;;;;;;;;;5053245;28;20262;-80
2023/06/03 11:12:04;;;;;;;5.07;4.60;;;;;;;;;;5052749;28;20208;-80
2023/06/03 11:14:56;;;;;;;4.73;4.33;;;;;;;;;;5051786;28;20213;-81
2023/06/03 11:17:25;;;;;;;6.77;3.47;;;;;;;;;;5052204;28;20212;-81
2023/06/03 11:19:54;;;;;;;13.07;4.27;;;;;;;;;;5046951;28;20210;-81
2023/06/03 11:22:52;;;;;;;5.77;4.10;;;;;;;;;;5024223;28;20670;-81
2023/06/03 11:25:27;;;;;;;6.17;3.97;;;;;;;;;;5038520;28;20279;-81
2023/06/03 11:27:54;;;;;;;4.23;3.83;;;;;;;;;;5037861;28;20270;-81
2023/06/03 11:30:21;;;;;;;7.70;4.30;;;;;;;;;;5037810;28;20249;-81
2023/06/03 11:33:08;;;;;;;7.63;4.20;;;;;;;;;;5048895;28;20287;-81
2023/06/03 11:35:35;;;;;;;6.33;4.00;;;;;;;;;;5049515;28;20213;-81
2023/06/03 11:38:02;;;;;;;5.43;3.60;;;;;;;;;;5049642;28;20209;-80
2023/06/03 11:40:44;;;;;;;5.67;4.90;;;;;;;;;;5049705;28;20206;-81
2023/06/03 11:43:10;;;;;;;5.00;3.63;;;;;;;;;;5049864;28;20293;-81
2023/06/03 11:45:38;;;;;;;5.60;4.00;;;;;;;;;;5049350;28;20229;-81
2023/06/03 11:48:07;;;;;;;9.37;4.33;;;;;;;;;;5049633;28;20257;-81
2023/06/03 11:50:46;;;;;;;5.97;4.20;;;;;;;;;;5049736;28;20640;-81
2023/06/03 11:53:30;;;;;;;6.67;5.93;;;;;;;;;;5049708;28;20288;-81
2023/06/03 11:56:06;;;;;;;69.67;19.87;;;;;;;;;;5049983;28;20228;-81
2023/06/03 11:58:33;;;;;;;9.13;8.17;;;;;;;;;;5049312;28;20197;-80
2023/06/03 12:01:08;;;;;;;5.63;4.90;;;;;;;;;;5038216;28;20210;-81
2023/06/03 12:03:35;;;;;;;9.60;6.03;;;;;;;;;;5048513;28;20198;-80
2023/06/03 12:06:03;;;;;;;6.93;6.33;;;;;;;;;;5049661;28;20221;-80
2023/06/03 12:08:49;;;;;;;8.87;8.00;;;;;;;;;;5023111;28;20198;-80
2023/06/03 12:11:27;;;;;;;10.17;5.87;;;;;;;;;;5049359;28;20233;-80
2023/06/03 12:13:54;;;;;;;16.70;10.70;;;;;;;;;;5049389;28;20251;-80
2023/06/03 12:16:29;;;;;;;14.93;7.80;;;;;;;;;;5048687;28;20740;-80
2023/06/03 12:18:56;;;;;;;5.17;4.07;;;;;;;;;;5049230;28;20209;-81
2023/06/03 12:21:25;;;;;;;5.60;4.17;;;;;;;;;;5049538;28;20255;-80
2023/06/03 12:23:51;;;;;;;5.43;4.93;;;;;;;;;;5049002;28;20194;-81
2023/06/03 12:26:19;;;;;;;6.80;4.77;;;;;;;;;;5033074;28;20253;-78
2023/06/03 12:28:47;;;;;;;5.30;4.80;;;;;;;;;;5048414;28;20236;-78
2023/06/03 12:31:15;;;;;;;7.00;4.60;;;;;;;;;;5032747;28;20205;-80
2023/06/03 12:33:42;;;;;;;4.90;4.50;;;;;;;;;;5049169;28;20206;-79
2023/06/03 12:36:09;;;;;;;4.80;4.27;;;;;;;;;;5048640;28;20209;-79
2023/06/03 12:38:56;;;;;;;4.90;4.50;;;;;;;;;;5048527;28;20262;-80
2023/06/03 12:41:25;;;;;;;4.70;4.30;;;;;;;;;;5019761;28;20206;-80
2023/06/03 12:44:01;;;;;;;4.87;4.00;;;;;;;;;;5047407;28;20209;-79
2023/06/03 12:46:28;;;;;;;6.63;4.10;;;;;;;;;;5049073;28;20233;-79
2023/06/03 12:48:57;;;;;;;4.70;4.30;;;;;;;;;;5048275;28;20286;-79
2023/06/03 12:51:25;;;;;;;5.67;4.27;;;;;;;;;;5037332;28;20202;-80
2023/06/03 12:53:55;;;;;;;5.03;4.20;;;;;;;;;;5039418;28;20225;-80
2023/06/03 12:56:23;;;;;;;4.87;4.40;;;;;;;;;;5048652;28;20209;-79
2023/06/03 12:58:50;;;;;;;4.77;4.37;;;;;;;;;;5048689;28;20237;-79
2023/06/03 13:01:18;;;;;;;4.47;4.10;;;;;;;;;;5048233;28;20676;-79
2023/06/03 13:03:44;;;;;;;6.30;4.20;;;;;;;;;;5048228;28;20205;-80
2023/06/03 13:06:11;;;;;;;5.23;4.63;;;;;;;;;;5047901;28;20230;-80
2023/06/03 13:08:38;;;;;;;4.57;4.20;;;;;;;;;;5047942;28;20214;-81
2023/06/03 13:11:05;;;;;;;7.10;4.30;;;;;;;;;;5048050;28;20217;-80
2023/06/03 13:13:34;;;;;;;5.87;4.13;;;;;;;;;;5047834;28;20217;-80
2023/06/03 13:16:01;;;;;;;5.30;4.30;;;;;;;;;;5047498;28;20221;-80
2023/06/03 13:18:30;;;;;;;4.30;3.90;;;;;;;;;;5048349;28;20212;-79
2023/06/03 13:20:57;;;;;;;5.90;4.70;;;;;;;;;;5037190;28;20203;-80
2023/06/03 13:23:25;;;;;;;6.23;4.30;;;;;;;;;;5028399;28;20284;-80
2023/06/03 13:25:52;;;;;;;4.77;4.37;;;;;;;;;;5028513;28;20225;-80
2023/06/03 13:28:19;;;;;;;4.77;4.37;;;;;;;;;;5027444;28;20198;-80
2023/06/03 13:30:48;;;;;;;4.60;4.20;;;;;;;;;;5028672;28;20241;-80
2023/06/03 13:33:15;;;;;;;5.10;4.60;;;;;;;;;;5028085;28;20203;-80
2023/06/03 13:35:44;;;;;;;4.63;4.23;;;;;;;;;;5028305;28;20260;-80
2023/06/03 13:38:12;;;;;;;5.17;4.77;;;;;;;;;;5027733;28;20701;-80
2023/06/03 13:40:39;;;;;;;5.80;4.50;;;;;;;;;;5028051;28;20199;-80
2023/06/03 13:43:05;;;;;;;5.43;4.27;;;;;;;;;;5026818;28;20247;-80
2023/06/03 13:45:32;;;;;;;4.50;4.10;;;;;;;;;;5028026;28;20226;-80
2023/06/03 13:47:59;;;;;;;4.60;3.70;;;;;;;;;;5027713;28;20709;-80
2023/06/03 13:50:26;;;;;;;5.13;4.33;;;;;;;;;;5028485;28;20206;-80
2023/06/03 13:52:54;;;;;;;4.63;3.80;;;;;;;;;;5027489;28;20203;-80
2023/06/03 13:55:21;;;;;;;5.30;4.80;;;;;;;;;;5028359;28;20222;-80
2023/06/03 13:57:48;;;;;;;4.50;4.10;;;;;;;;;;5028133;28;20202;-80
2023/06/03 14:00:15;;;;;;;4.90;4.50;;;;;;;;;;5027302;28;20766;-80
2023/06/03 14:02:41;;;;;;;4.07;3.77;;;;;;;;;;5027954;28;20203;-80
2023/06/03 14:05:09;;;;;;;4.67;4.20;;;;;;;;;;5027883;28;20704;-80
2023/06/03 14:07:36;;;;;;;4.47;4.03;;;;;;;;;;5027628;28;20207;-80
2023/06/03 14:10:05;;;;;;;4.27;3.87;;;;;;;;;;5027919;28;20263;-80
2023/06/03 14:12:33;;;;;;;4.30;3.90;;;;;;;;;;5014356;28;20688;-81
2023/06/03 14:14:59;;;;;;;4.30;4.00;;;;;;;;;;5027855;28;20191;-80
2023/06/03 14:17:26;;;;;;;4.93;4.50;;;;;;;;;;5027684;28;20202;-80
2023/06/03 14:19:54;;;;;;;3.97;3.67;;;;;;;;;;5027725;28;20230;-80
2023/06/03 14:22:21;;;;;;;5.20;4.37;;;;;;;;;;5027917;28;20233;-80
2023/06/03 14:24:48;;;;;;;6.13;4.53;;;;;;;;;;5015004;28;20215;-80
2023/06/03 14:27:16;;;;;;;4.70;4.30;;;;;;;;;;5027214;28;20226;-80
2023/06/03 14:29:43;;;;;;;4.57;4.17;;;;;;;;;;5027664;28;20630;-80
2023/06/03 14:32:10;;;;;;;4.30;3.90;;;;;;;;;;5027538;28;20290;-80
2023/06/03 14:34:37;;;;;;;4.27;3.90;;;;;;;;;;5027583;28;20673;-80
2023/06/03 14:37:03;;;;;;;4.60;3.90;;;;;;;;;;5028132;28;20207;-80
2023/06/03 14:39:33;;;;;;;4.37;3.87;;;;;;;;;;5027482;28;20202;-80
2023/06/03 14:42:00;;;;;;;4.13;3.73;;;;;;;;;;5027295;28;20202;-80
2023/06/03 14:44:28;;;;;;;4.43;4.03;;;;;;;;;;5027904;28;20206;-80
2023/06/03 14:46:55;;;;;;;4.17;3.77;;;;;;;;;;5026686;28;20231;-80
2023/06/03 14:49:24;;;;;;;3.83;3.53;;;;;;;;;;5043165;28;20245;-80
2023/06/03 14:51:51;;;;;;;3.80;3.50;;;;;;;;;;5046821;28;20699;-81